Terminal Aerodrome Forecast
Issued by NWS

Home | Current Version | Previous Version | Text Only | Print | Product List | Glossary On
Versions: 1 2 3 4 5 6 7 8 9 10 11 12 13
000
FTUS42 TJSJ 260520
TAFJBQ
TAF
TJBQ 260520Z 2606/2706 10006KT P6SM VCSH SCT025 SCT070
     FM260900 12003KT P6SM FEW035
     FM261400 08010KT P6SM SCT025 SCT050
     FM262300 10005KT P6SM FEW030 SCT070
      AMD NOT SKED TIL 261100=

USA.gov is the U.S. government's official web portal to all federal, state and local government web resources and services.